Aviation Digital Data Service (ADDS)

Output produced by METARs form (1752 UTC 25 July 2016)
found at http://aviationweather.gov/adds/metars/
 
KJST 251725Z 2518/2618 26010G18KT P6SM SCT040 
     TEMPO 2520/2522 VRB20G35KT 2SM +TSRA OVC025CB 
     FM252300 28010KT P6SM VCSH BKN050 
     FM260200 29007KT P6SM SCT040 
     FM260700 26006KT 4SM BR OVC250 
     FM260900 26005KT 2SM BR OVC004